Selected Arizona METAR Reports


Metar stations are listed by distance from this station - near to far. The 'official' reporting station for the Greater Phoenix area is KPHX - Phoenix/Sky Harbor.

KDVT - Phoenix/Deer Valley, Arizona, USA
Distance from station: NW 4mi, 7km
Updated: Wed 16 Oct 2019 1853 MST
Clear
Clear
 Wind from ENE
Wind: ENE 3 mph , 6 km/h
Temperature: 84°F , 29°C
Dew Point: 28°F , -2°C
Humidity: 13%
Barometer: 29.82 inHg , 1009.8 hPa
Clouds: Clear
Visibility: 10 miles , 16 km
2019/10/17 01:53 KDVT 170153Z 06003KT 10SM CLR 29/M02 A2982 RMK AO2 SLP076 T02941017
KSDL - Scottsdale, Arizona, USA
Distance from station: ESE 6mi, 9km
Updated: Wed 16 Oct 2019 1853 MST
Clear
Clear
 Wind from calm
Wind: Calm
Temperature: 86°F , 30°C
Dew Point: 30°F , -1°C
Humidity: 13%
Barometer: 29.82 inHg , 1009.8 hPa
Clouds: Clear
Visibility: 10 miles , 16 km
2019/10/17 01:53 KSDL 170153Z 00000KT 10SM CLR 30/M01 A2982 RMK AO2 SLP077 T03001011
 
KPHX - Phoenix/Sky Harbor, Arizona, USA
Distance from station: S 15mi, 24km
Updated: Wed 16 Oct 2019 1851 MST
Mostly cloudy
Mostly cloudy
 Wind from NE
Wind: NE 9 mph , 15 km/h
Temperature: 90°F , 32°C
Dew Point: 30°F , -1°C
Humidity: 12%
Barometer: 29.77 inHg , 1008.1 hPa
Clouds: Mostly cloudy
Visibility: 10 miles , 16 km
Cloud details: Mostly cloudy 25000 ft
Mostly cloudy 29000 ft
2019/10/17 01:51 KPHX 170151Z 05008KT 10SM BKN250 BKN290 32/M01 A2977 RMK AO2 SLP064 T03221011
KGEU - Glendale, Arizona, USA
Distance from station: WSW 19mi, 30km
Updated: Wed 16 Oct 2019 1758 MST
NOT Current
Mostly cloudy
Mostly cloudy
 Wind from N
Wind: N 5 mph , 7 km/h
Temperature: 90°F , 32°C
Dew Point: 32°F , 0°C
Humidity: 13%
Barometer: 29.79 inHg , 1008.8 hPa
Clouds: Mostly cloudy
Visibility: 10 miles , 16 km
Cloud details: Mostly cloudy 25000 ft
2019/10/17 00:58 KGEU 170058Z 01004KT 10SM BKN250 32/00 A2979
 
KFFZ - Mesa/Falcon Field, Arizona, USA
Distance from station: SE 21mi, 33km
Updated: Wed 16 Oct 2019 1854 MST
Clear
Clear
 Wind from E
Wind: E 6 mph , 9 km/h
Temperature: 86°F , 30°C
Dew Point: 34°F , 1°C
Humidity: 15%
Barometer: 29.80 inHg , 1009.1 hPa
Clouds: Clear
Visibility: 10 miles , 16 km
2019/10/17 01:54 KFFZ 170154Z 08005KT 10SM CLR 30/01 A2980 RMK AO2 SLP068 T03000011
KLUF - Luke AFB/Glendale, Arizona, USA
Distance from station: WSW 23mi, 36km
Updated: Wed 16 Oct 2019 1858 MST
Clear
Clear
 Wind from NW
Wind: NW 6 mph , 9 km/h
Temperature: 81°F , 27°C
Dew Point: 39°F , 4°C
Humidity: 23%
Barometer: 29.77 inHg , 1008.1 hPa
Clouds: Clear
Visibility: 8 miles , 13 km
2019/10/17 01:58 KLUF 170158Z AUTO 32005KT 8SM CLR 27/04 A2977 RMK AO2 SLP072 T02730043 $
 
KGYR - Goodyear Municipal, Arizona, USA
Distance from station: SW 26mi, 42km
Updated: Wed 16 Oct 2019 1847 MST
Mostly cloudy
Mostly cloudy
 Wind from calm
Wind: Calm
Temperature: 86°F , 30°C
Dew Point: 34°F , 1°C
Humidity: 15%
Barometer: 29.78 inHg , 1008.5 hPa
Clouds: Mostly cloudy
Visibility: 10 miles , 16 km
Cloud details: Mostly cloudy 25000 ft
2019/10/17 01:47 KGYR 170147Z 00000KT 10SM BKN250 30/01 A2978
KIWA - Chandler/Mesa, Arizona, USA
Distance from station: SE 32mi, 51km
Updated: Wed 16 Oct 2019 1850 MST
Partly cloudy
Partly cloudy
 Wind from E
Wind: E 7 mph , 11 km/h
Temperature: 86°F , 30°C
Dew Point: 30°F , -1°C
Humidity: 13%
Barometer: 29.81 inHg , 1009.5 hPa
Clouds: Partly cloudy
Visibility: 10 miles , 16 km
Cloud details: Partly cloudy 21000 ft
2019/10/17 01:50 KIWA 170150Z 09006KT 10SM SCT210 30/M01 A2981
 
KBXK - Buckeye, Arizona, USA
Distance from station: WSW 42mi, 68km
Updated: Wed 16 Oct 2019 1935 MST
Clear
Clear
 Wind from NNE
Wind: NNE 8 mph , 13 km/h
Temperature: 77°F , 25°C
Dew Point: 32°F , 0°C
Humidity: 19%
Barometer: 29.79 inHg , 1008.8 hPa
Clouds: Clear
Visibility: 10 miles , 16 km
2019/10/17 02:35 KBXK 170235Z AUTO 02007KT 10SM CLR 25/M00 A2979 RMK A01
KCGZ - Casa Grande, Arizona, USA
Distance from station: SSE 50mi, 81km
Updated: Wed 16 Oct 2019 1856 MST
Clear
Clear
 Wind from NE
Wind: NE 8 mph , 13 km/h
Temperature: 82°F , 28°C
Dew Point: 30°F , -1°C
Humidity: 15%
Barometer: 29.81 inHg , 1009.5 hPa
Clouds: Clear
Visibility: 10 miles , 16 km
2019/10/17 01:56 KCGZ 170156Z AUTO 04007KT 10SM CLR 28/M01 A2981 RMK AO2 SLP083 T02781006
 
KPAN - Payson, Arizona, USA
Distance from station: NE 57mi, 91km
Updated: Wed 16 Oct 2019 1935 MST
Clear
Clear
 Wind from calm
Wind: Calm
Temperature: 64°F , 18°C
Dew Point: 25°F , -4°C
Humidity: 22%
Barometer: 30.11 inHg , 1019.6 hPa
Clouds: Clear
Visibility: 10 miles , 16 km
2019/10/17 02:35 KPAN 170235Z AUTO 00000KT 10SM CLR 18/M04 A3011 RMK AO2
KGBN - Gila Bend (aaf), Arizona, USA
Distance from station: SW 68mi, 109km
Updated: Thu 20 Jul 2017 0757 MST
NOT Current
Partly cloudy
Partly cloudy
 Wind from calm
Wind: Calm
Temperature: 86°F , 30°C
Heat Index: 89°F , 32°C
Dew Point: 68°F , 20°C
Humidity: 55%
Barometer: 29.97 inHg , 1014.9 hPa
Clouds: Partly cloudy
Visibility: 10 miles , 16 km
Cloud details: Few Clouds 10000 ft
Partly cloudy 15000 ft
2017/07/20 14:57 KGBN 201457Z 00000KT 10SM FEW100 SCT150 30/20 A2997 RMK A02 NO SLP
 
KPRC - Prescott, Arizona, USA
Distance from station: NNW 73mi, 118km
Updated: Wed 16 Oct 2019 1853 MST
Clear
Clear
 Wind from S
Wind: S 7 mph , 11 km/h
Temperature: 64°F , 18°C
Dew Point: 28°F , -2°C
Humidity: 26%
Barometer: 30.08 inHg , 1018.6 hPa
Clouds: Clear
Visibility: 10 miles , 16 km
2019/10/17 01:53 KPRC 170153Z 18006KT 10SM CLR 18/M02 A3008 RMK AO2 SLP138 T01831017
KSEZ - Sedona, Arizona, USA
Distance from station: N 84mi, 135km
Updated: Wed 16 Oct 2019 1935 MST
Clear
Clear
 Wind from NE
Wind: NE 7 mph , 11 km/h
Temperature: 72°F , 22°C
Dew Point: 30°F , -1°C
Humidity: 22%
Barometer: 30.06 inHg , 1017.9 hPa
Clouds: Clear
Visibility: 10 miles , 16 km
2019/10/17 02:35 KSEZ 170235Z AUTO 04006KT 10SM CLR 22/M01 A3006 RMK AO2
 
KFLG - Flagstaff, Arizona, USA
Distance from station: N 105mi, 168km
Updated: Wed 16 Oct 2019 1857 MST
Clear
Clear
 Wind from calm
Wind: Calm
Temperature: 52°F , 11°C
Dew Point: 21°F , -6°C
Humidity: 30%
Barometer: 30.20 inHg , 1022.7 hPa
Clouds: Clear
Visibility: 10 miles , 16 km
2019/10/17 01:57 KFLG 170157Z 00000KT 10SM CLR 11/M06 A3020 RMK AO2 SLP193 T01061061 $
KRYN - Tucson/Ryan Field, Arizona, USA
Distance from station: SSE 114mi, 184km
Updated: Wed 16 Oct 2019 1850 MST
Clear
Clear
 Wind from ENE
Wind: ENE 8 mph , 13 km/h
Temperature: 84°F , 29°C
Dew Point: 37°F , 3°C
Humidity: 19%
Barometer: 29.87 inHg , 1011.5 hPa
Clouds: Clear
Visibility: 10 miles , 16 km
2019/10/17 01:50 KRYN 170150Z 07007KT 10SM CLR 29/03 A2987
 
KCMR - Williams Clark, Arizona, USA
Distance from station: N 115mi, 185km
Updated: Wed 16 Oct 2019 1935 MST
Overcast
Overcast
 Wind from SSE
Wind: SSE 7 mph , 11 km/h
Temperature: 54°F , 12°C
Dew Point: 21°F , -6°C
Humidity: 28%
Barometer: 30.18 inHg , 1022 hPa
Clouds: Overcast
Visibility: 8 miles , 13 km
Cloud details: Mostly cloudy 5000 ft
Overcast 5500 ft
2019/10/17 02:35 KCMR 170235Z AUTO 15006KT 8SM BKN050 OVC055 12/M06 A3018 RMK AO2 PWINO
KINW - Winslow, Arizona, USA
Distance from station: NE 121mi, 194km
Updated: Wed 16 Oct 2019 1856 MST
Clear
Clear
 Wind from calm
Wind: Calm
Temperature: 59°F , 15°C
Dew Point: 18°F , -8°C
Humidity: 20%
Barometer: 30.07 inHg , 1018.3 hPa
Clouds: Clear
Visibility: 10 miles , 16 km
2019/10/17 01:56 KINW 170156Z AUTO 00000KT 10SM CLR 15/M08 A3007 RMK AO2 SLP161 T01501083
 
KTUS - Tucson, Arizona, USA
Distance from station: SSE 121mi, 195km
Updated: Wed 16 Oct 2019 1853 MST
Clear
Clear
 Wind from E
Wind: E 12 mph , 19 km/h
Temperature: 84°F , 29°C
Dew Point: 37°F , 3°C
Humidity: 19%
Barometer: 29.89 inHg , 1012.2 hPa
Clouds: Clear
Visibility: 10 miles , 16 km
2019/10/17 01:53 KTUS 170153Z 09010KT 10SM CLR 29/03 A2989 RMK AO2 SLP083 T02890028
KDMA - Davis AFB/Tucson, Arizona, USA
Distance from station: SE 122mi, 196km
Updated: Wed 16 Oct 2019 1858 MST
Clear
Clear
 Wind from NE
Wind: NE 14 mph , 22 km/h
Temperature: 81°F , 27°C
Dew Point: 39°F , 4°C
Humidity: 23%
Barometer: 29.88 inHg , 1011.9 hPa
Clouds: Clear
Visibility: 10 miles , 16 km
2019/10/17 01:58 KDMA 170158Z AUTO 05012KT 10SM CLR 27/04 A2988 RMK AO2 SLP083 T02740044 $
 
KSOW - Show Low Municipal, Arizona, USA
Distance from station: ENE 123mi, 198km
Updated: Wed 16 Oct 2019 1935 MST
Clear
Clear
 Wind from calm
Wind: Calm
Temperature: 57°F , 14°C
Dew Point: 18°F , -8°C
Humidity: 21%
Barometer: 30.18 inHg , 1022 hPa
Clouds: Clear
Visibility: 10 miles , 16 km
2019/10/17 02:35 KSOW 170235Z AUTO 00000KT 10SM CLR 14/M08 A3018 RMK AO2
KSAD - Safford, Arizona, USA
Distance from station: ESE 148mi, 238km
Updated: Wed 16 Oct 2019 1851 MST
Clear
Clear
 Wind from SE
Wind: SE 14 mph , 22 km/h
Temperature: 77°F , 25°C
Dew Point: 36°F , 2°C
Humidity: 22%
Barometer: 29.98 inHg , 1015.2 hPa
Clouds: Clear
Visibility: 10 miles , 16 km
2019/10/17 01:51 KSAD 170151Z AUTO 13012KT 10SM CLR 25/02 A2998 RMK AO2 SLP111 T02500017